Time;durP1;ratioP1;P1;durP2;ratioP2;P2;SDS_P1;SDS_P2;PMS_P1;PMS_P2;Temp;Humidity;BMP_temperature;BMP_pressure;BME280_temperature;BME280_humidity;BME280_pressure;Samples;Min_cycle;Max_cycle;Signal;HPM_P1;HPM_P2
2021/09/10 00:01:10;;;;;;;4.50;4.10;;;;;;;23.36;60.08;101094.63;1774974;79;20965;-56
2021/09/10 00:03:36;;;;;;;5.15;4.08;;;;;;;23.35;60.03;101092.99;1776891;79;21074;-56
2021/09/10 00:06:02;;;;;;;4.90;4.40;;;;;;;23.34;60.01;101095.52;1777324;79;21530;-56
2021/09/10 00:08:28;;;;;;;5.05;4.55;;;;;;;23.32;59.96;101097.00;1782327;79;23045;-57
2021/09/10 00:10:54;;;;;;;5.33;4.42;;;;;;;23.30;59.94;101093.76;1776644;79;20902;-55
2021/09/10 00:13:20;;;;;;;5.35;4.53;;;;;;;23.27;59.93;101093.83;1780565;79;21046;-56
2021/09/10 00:15:46;;;;;;;4.72;3.85;;;;;;;23.25;59.93;101092.53;1781710;79;20909;-56
2021/09/10 00:18:12;;;;;;;4.42;3.90;;;;;;;23.22;59.92;101087.05;1781168;79;21719;-56
2021/09/10 00:20:38;;;;;;;4.45;3.80;;;;;;;23.22;59.93;101085.66;1777281;79;23303;-56
2021/09/10 00:23:05;;;;;;;5.05;3.85;;;;;;;23.24;59.98;101084.77;1777247;79;20976;-56
2021/09/10 00:25:31;;;;;;;3.80;3.40;;;;;;;23.26;60.08;101090.80;1775565;79;21194;-56
2021/09/10 00:27:57;;;;;;;4.22;3.70;;;;;;;23.27;60.14;101084.11;1782356;79;21005;-56
2021/09/10 00:30:23;;;;;;;3.95;3.58;;;;;;;23.28;60.20;101084.92;1778164;79;22293;-55
2021/09/10 00:32:49;;;;;;;4.50;3.72;;;;;;;23.28;60.15;101087.14;1773805;79;23328;-56
2021/09/10 00:35:15;;;;;;;4.62;4.12;;;;;;;23.29;60.11;101085.17;1780415;79;21040;-57
2021/09/10 00:37:41;;;;;;;4.80;3.77;;;;;;;23.30;60.04;101084.83;1784120;79;21411;-56
2021/09/10 00:40:09;;;;;;;5.35;3.85;;;;;;;23.31;59.98;101089.81;1774145;79;21594;-56
2021/09/10 00:42:35;;;;;;;5.03;3.85;;;;;;;23.30;59.87;101094.55;1775591;79;21060;-56
2021/09/10 00:45:02;;;;;;;4.20;3.80;;;;;;;23.28;59.85;101085.75;1772317;79;21114;-56
2021/09/10 00:47:28;;;;;;;6.12;4.05;;;;;;;23.26;59.80;101090.80;1772629;79;21095;-56
2021/09/10 00:49:55;;;;;;;5.67;3.70;;;;;;;23.26;59.76;101088.59;1778786;79;20945;-56
2021/09/10 00:52:21;;;;;;;4.67;4.00;;;;;;;23.23;59.74;101091.46;1779458;79;21072;-56
2021/09/10 00:54:47;;;;;;;4.03;3.40;;;;;;;23.21;59.70;101094.56;1777129;79;21104;-56
2021/09/10 00:57:14;;;;;;;3.67;3.33;;;;;;;23.18;59.69;101094.40;1779470;79;21995;-56
2021/09/10 00:59:41;;;;;;;3.95;3.52;;;;;;;23.17;59.70;101092.77;1774710;80;21048;-56
2021/09/10 01:02:07;;;;;;;5.17;3.83;;;;;;;23.15;59.69;101090.91;1770457;80;21060;-56
2021/09/10 01:04:33;;;;;;;5.20;3.10;;;;;;;23.12;59.70;101086.84;1757778;80;20905;-56
2021/09/10 01:06:59;;;;;;;4.45;3.27;;;;;;;23.13;59.70;101087.63;1790484;78;21474;-56
2021/09/10 01:09:25;;;;;;;4.33;2.87;;;;;;;23.14;59.77;101086.48;1763999;80;21282;-57
2021/09/10 01:11:51;;;;;;;5.08;3.27;;;;;;;23.17;59.88;101085.83;1793744;78;21037;-56
2021/09/10 01:14:18;;;;;;;4.47;3.25;;;;;;;23.17;59.97;101089.42;1795078;78;20885;-55
2021/09/10 01:16:46;;;;;;;3.35;2.80;;;;;;;23.19;59.99;101087.14;1796036;78;21480;-56
2021/09/10 01:19:27;;;;;;;4.08;3.10;;;;;;;23.20;59.95;101087.97;1769669;78;21075;-56
2021/09/10 01:21:56;;;;;;;3.92;3.02;;;;;;;23.21;59.90;101089.00;1729212;80;22012;-56
2021/09/10 01:24:28;;;;;;;3.75;3.30;;;;;;;23.22;59.83;101095.38;1777783;80;21524;-56
2021/09/10 01:26:55;;;;;;;4.47;3.12;;;;;;;23.23;59.75;101090.08;1771619;78;21099;-56
2021/09/10 01:29:21;;;;;;;4.37;2.75;;;;;;;23.21;59.69;101089.60;1775579;78;20956;-56
2021/09/10 01:31:49;;;;;;;3.40;2.98;;;;;;;23.20;59.60;101085.19;1770049;79;20909;-55
2021/09/10 01:34:15;;;;;;;3.35;3.05;;;;;;;23.18;59.60;101088.84;1775970;79;21443;-55
2021/09/10 01:36:41;;;;;;;4.53;3.12;;;;;;;23.17;59.55;101090.81;1775615;79;21062;-55
2021/09/10 01:39:07;;;;;;;3.33;2.87;;;;;;;23.16;59.55;101086.98;1776164;79;21093;-55
2021/09/10 01:41:33;;;;;;;4.60;2.87;;;;;;;23.13;59.50;101099.55;1782983;79;21580;-57
2021/09/10 01:43:59;;;;;;;3.67;3.17;;;;;;;23.12;59.52;101098.51;1785227;79;21063;-56
2021/09/10 01:46:25;;;;;;;4.90;3.02;;;;;;;23.09;59.50;101097.75;1781895;79;22903;-56
2021/09/10 01:48:51;;;;;;;3.47;2.92;;;;;;;23.07;59.49;101102.27;1777037;79;21263;-56
2021/09/10 01:51:17;;;;;;;3.98;3.27;;;;;;;23.05;59.50;101098.98;1788327;79;20999;-56
2021/09/10 01:53:44;;;;;;;3.60;3.25;;;;;;;23.04;59.51;101104.87;1789136;79;21539;-57
2021/09/10 01:56:10;;;;;;;2.75;2.42;;;;;;;23.04;59.51;101100.72;1793823;79;21163;-56
2021/09/10 01:58:36;;;;;;;3.75;2.83;;;;;;;23.05;59.58;101103.14;1793589;78;21064;-57
2021/09/10 02:01:03;;;;;;;3.50;2.50;;;;;;;23.08;59.66;101104.47;1787479;79;20986;-56
2021/09/10 02:03:29;;;;;;;3.17;2.60;;;;;;;23.09;59.74;101104.13;1791557;79;21031;-56
2021/09/10 02:05:55;;;;;;;3.55;2.90;;;;;;;23.10;59.78;101100.78;1795132;79;21706;-56
2021/09/10 02:08:21;;;;;;;4.05;3.10;;;;;;;23.12;59.76;101098.51;1793762;78;20898;-56
2021/09/10 02:10:47;;;;;;;3.42;2.98;;;;;;;23.12;59.71;101097.94;1791121;79;21328;-55
2021/09/10 02:13:15;;;;;;;2.83;2.52;;;;;;;23.15;59.62;101102.83;1795422;79;20989;-56
2021/09/10 02:15:41;;;;;;;3.40;2.52;;;;;;;23.15;59.54;101098.66;1791775;79;21453;-56
2021/09/10 02:18:07;;;;;;;3.35;2.60;;;;;;;23.14;59.48;101095.63;1790251;79;20969;-56
2021/09/10 02:20:33;;;;;;;3.37;2.80;;;;;;;23.14;59.42;101100.37;1789729;79;21020;-56
2021/09/10 02:22:59;;;;;;;3.83;2.90;;;;;;;23.11;59.38;101101.85;1790603;79;22103;-56
2021/09/10 02:25:25;;;;;;;3.42;2.72;;;;;;;23.11;59.35;101098.25;1771677;79;20906;-56
2021/09/10 02:27:51;;;;;;;3.20;2.83;;;;;;;23.08;59.28;101098.35;1776018;79;21187;-56
2021/09/10 02:30:18;;;;;;;2.85;2.50;;;;;;;23.07;59.28;101102.83;1773026;79;21020;-56
2021/09/10 02:32:44;;;;;;;3.52;2.95;;;;;;;23.05;59.26;101101.76;1772888;79;21120;-55
2021/09/10 02:35:10;;;;;;;3.37;2.87;;;;;;;23.03;59.25;101099.90;1772003;79;21067;-56
2021/09/10 02:37:36;;;;;;;3.40;2.80;;;;;;;23.01;59.24;101095.80;1772048;79;21034;-56
2021/09/10 02:40:04;;;;;;;4.25;2.52;;;;;;;22.98;59.24;101091.73;1773090;79;22680;-56
2021/09/10 02:42:30;;;;;;;3.67;2.50;;;;;;;22.97;59.25;101093.44;1773923;79;21088;-56
2021/09/10 02:44:56;;;;;;;3.62;2.60;;;;;;;22.94;59.24;101087.98;1772719;79;21512;-56
2021/09/10 02:47:22;;;;;;;2.67;2.20;;;;;;;22.96;59.25;101089.02;1772351;79;21328;-56
2021/09/10 02:49:48;;;;;;;3.10;2.20;;;;;;;22.97;59.33;101086.50;1775232;79;20932;-56
2021/09/10 02:52:14;;;;;;;4.17;2.35;;;;;;;22.99;59.42;101091.98;1774642;79;20928;-56
2021/09/10 02:54:40;;;;;;;3.72;2.20;;;;;;;23.01;59.51;101091.64;1770892;79;20964;-56
2021/09/10 02:57:06;;;;;;;3.30;2.35;;;;;;;23.03;59.56;101089.36;1774135;79;21026;-57
2021/09/10 02:59:32;;;;;;;2.90;2.40;;;;;;;23.04;59.52;101089.02;1770184;79;23229;-56
2021/09/10 03:01:58;;;;;;;3.10;2.52;;;;;;;23.06;59.46;101090.09;1778735;79;20965;-56
2021/09/10 03:04:24;;;;;;;3.58;2.47;;;;;;;23.07;59.38;101088.95;1779578;79;20922;-56
2021/09/10 03:06:50;;;;;;;3.22;2.42;;;;;;;23.08;59.29;101094.75;1777337;79;21077;-56
2021/09/10 03:09:17;;;;;;;3.00;2.50;;;;;;;23.07;59.21;101087.00;1770192;79;21472;-56
2021/09/10 03:11:43;;;;;;;2.50;2.20;;;;;;;23.06;59.16;101089.52;1772079;79;22634;-56
2021/09/10 03:14:09;;;;;;;3.20;2.60;;;;;;;23.04;59.10;101086.24;1781148;80;21021;-56
2021/09/10 03:16:35;;;;;;;3.10;2.22;;;;;;;23.04;59.05;101088.23;1781522;79;21004;-56
2021/09/10 03:19:01;;;;;;;3.67;2.55;;;;;;;23.02;59.01;101091.89;1776820;79;21001;-56
2021/09/10 03:21:28;;;;;;;2.83;2.33;;;;;;;22.99;58.97;101089.20;1778704;79;21063;-56
2021/09/10 03:23:54;;;;;;;3.45;2.62;;;;;;;22.98;58.97;101088.14;1782423;79;21246;-56
2021/09/10 03:26:20;;;;;;;3.05;2.35;;;;;;;22.96;58.94;101094.57;1773581;79;21024;-56
2021/09/10 03:28:46;;;;;;;2.80;2.40;;;;;;;22.93;58.94;101091.89;1774026;79;20894;-56
2021/09/10 03:31:12;;;;;;;3.10;2.30;;;;;;;22.90;58.91;101089.78;1773964;79;21562;-57
2021/09/10 03:33:38;;;;;;;2.90;2.33;;;;;;;22.89;58.92;101091.48;1772102;79;21071;-57
2021/09/10 03:36:04;;;;;;;3.33;2.45;;;;;;;22.87;58.94;101094.59;1772919;79;21125;-56
2021/09/10 03:38:30;;;;;;;3.17;2.25;;;;;;;22.86;58.94;101098.51;1772026;79;21025;-56
2021/09/10 03:40:57;;;;;;;3.42;2.30;;;;;;;22.83;58.93;101096.36;1771414;79;21036;-56
2021/09/10 03:43:22;;;;;;;3.15;2.20;;;;;;;22.81;58.93;101094.50;1772119;79;20921;-56
2021/09/10 03:45:48;;;;;;;2.35;1.98;;;;;;;22.80;58.95;101092.05;1773774;79;21328;-56
2021/09/10 03:48:15;;;;;;;2.15;1.92;;;;;;;22.82;58.96;101096.14;1771892;79;21155;-56
2021/09/10 03:50:41;;;;;;;2.67;2.10;;;;;;;22.84;59.02;101095.23;1773393;79;21534;-58
2021/09/10 03:53:07;;;;;;;4.03;2.10;;;;;;;22.87;59.13;101097.94;1768792;79;20894;-57
2021/09/10 03:55:33;;;;;;;2.70;2.00;;;;;;;22.89;59.22;101095.64;1772507;79;21164;-57
2021/09/10 03:57:59;;;;;;;3.05;2.08;;;;;;;22.89;59.25;101099.23;1768777;79;21506;-56
2021/09/10 04:00:25;;;;;;;2.90;2.17;;;;;;;22.92;59.22;101101.34;1775447;79;23207;-56
2021/09/10 04:02:51;;;;;;;3.15;2.10;;;;;;;22.94;59.15;101097.69;1767221;79;21035;-56
2021/09/10 04:05:17;;;;;;;3.42;2.20;;;;;;;22.95;59.07;101091.00;1773111;79;21053;-56
2021/09/10 04:07:43;;;;;;;2.30;2.05;;;;;;;22.96;58.98;101099.55;1769073;79;20976;-56
2021/09/10 04:10:10;;;;;;;3.20;2.10;;;;;;;22.96;58.91;101099.55;1767696;79;20956;-56
2021/09/10 04:12:36;;;;;;;2.45;1.62;;;;;;;22.97;58.85;101103.14;1769534;79;21478;-56
2021/09/10 04:15:04;;;;;;;2.87;2.00;;;;;;;22.95;58.76;101099.90;1773889;79;20984;-56
2021/09/10 04:17:30;;;;;;;3.45;2.17;;;;;;;22.93;58.71;101100.22;1771317;79;21147;-56
2021/09/10 04:19:56;;;;;;;3.40;2.25;;;;;;;22.92;58.69;101101.91;1773604;79;20996;-56
2021/09/10 04:22:22;;;;;;;2.98;2.15;;;;;;;22.90;58.65;101102.27;1768303;79;21028;-56
2021/09/10 04:24:48;;;;;;;2.75;2.10;;;;;;;22.89;58.63;101098.41;1772672;79;21240;-57
2021/09/10 04:27:15;;;;;;;2.37;2.08;;;;;;;22.87;58.61;101095.16;1770007;79;21034;-56
2021/09/10 04:29:41;;;;;;;2.70;2.02;;;;;;;22.85;58.59;101099.64;1774188;79;21087;-56
2021/09/10 04:32:07;;;;;;;2.27;1.92;;;;;;;22.84;58.58;101102.73;1772233;79;21016;-56
2021/09/10 04:34:34;;;;;;;3.15;2.10;;;;;;;22.81;58.57;101100.05;1773502;79;21083;-56
2021/09/10 04:37:01;;;;;;;3.37;2.20;;;;;;;22.80;58.54;101103.95;1770534;79;21182;-56
2021/09/10 04:39:27;;;;;;;3.05;2.15;;;;;;;22.78;58.55;101095.73;1766470;79;21060;-56
2021/09/10 04:41:53;;;;;;;3.00;1.85;;;;;;;22.76;58.55;101094.09;1773352;79;21130;-56
2021/09/10 04:44:19;;;;;;;4.20;2.25;;;;;;;22.75;58.53;101093.84;1772625;79;21538;-56
2021/09/10 04:46:45;;;;;;;2.72;2.10;;;;;;;22.73;58.54;101085.61;1776436;79;20982;-56
2021/09/10 04:49:11;;;;;;;2.37;2.05;;;;;;;22.72;58.55;101091.72;1767922;79;21553;-56
2021/09/10 04:51:37;;;;;;;3.12;2.25;;;;;;;22.70;58.52;101091.22;1772233;79;21620;-56
2021/09/10 04:54:03;;;;;;;2.77;2.17;;;;;;;22.68;58.54;101087.94;1776514;79;21067;-56
2021/09/10 04:56:29;;;;;;;2.77;2.05;;;;;;;22.67;58.54;101086.30;1769308;79;21099;-56
2021/09/10 04:58:56;;;;;;;2.37;2.00;;;;;;;22.66;58.51;101089.41;1777594;79;21112;-56
2021/09/10 05:01:22;;;;;;;2.62;2.00;;;;;;;22.66;58.53;101090.80;1783264;79;21085;-56
2021/09/10 05:03:48;;;;;;;2.37;1.90;;;;;;;22.66;58.53;101086.05;1796352;78;21144;-56
2021/09/10 05:06:14;;;;;;;2.10;1.70;;;;;;;22.71;58.59;101086.48;1791514;78;21087;-56
2021/09/10 05:08:40;;;;;;;2.02;1.70;;;;;;;22.75;58.70;101084.69;1797128;78;21412;-56
2021/09/10 05:11:06;;;;;;;2.65;1.70;;;;;;;22.77;58.80;101087.97;1797447;78;21016;-56
2021/09/10 05:13:32;;;;;;;4.35;2.00;;;;;;;22.81;58.79;101090.34;1773731;78;21248;-56
2021/09/10 05:15:59;;;;;;;3.05;2.08;;;;;;;22.83;58.77;101083.88;1772383;78;21028;-57
2021/09/10 05:18:25;;;;;;;2.50;1.95;;;;;;;22.86;58.69;101085.20;1778813;79;21100;-56
2021/09/10 05:20:51;;;;;;;2.70;2.15;;;;;;;22.88;58.61;101089.84;1794173;78;20994;-56
2021/09/10 05:23:17;;;;;;;2.20;1.85;;;;;;;22.90;58.50;101086.19;1772321;80;21052;-55
2021/09/10 05:25:43;;;;;;;2.40;1.77;;;;;;;22.89;58.40;101086.75;1798330;78;21231;-56
2021/09/10 05:28:09;;;;;;;2.70;2.10;;;;;;;22.90;58.32;101090.34;1771249;79;21431;-56
2021/09/10 05:33:04;;;;;;;2.95;2.12;;;;;;;22.92;58.21;101079.72;1842840;76;22560;-56
2021/09/10 05:35:30;;;;;;;2.60;1.70;;;;;;;22.87;58.16;101087.66;1808150;77;22483;-57
2021/09/10 05:37:56;;;;;;;7.80;3.12;;;;;;;22.87;58.11;101079.91;1801598;77;23294;-56
2021/09/10 05:40:22;;;;;;;5.80;2.75;;;;;;;22.85;58.08;101084.38;1807124;77;21015;-56
2021/09/10 05:42:49;;;;;;;9.03;3.50;;;;;;;22.84;58.09;101078.59;1810500;77;20970;-56
2021/09/10 05:45:15;;;;;;;14.98;5.72;;;;;;;22.83;58.06;101078.33;1804568;77;21069;-56
2021/09/10 05:47:42;;;;;;;45.52;12.80;;;;;;;22.82;58.04;101078.67;1807896;77;21485;-56
2021/09/10 05:50:09;;;;;;;33.60;9.70;;;;;;;22.81;58.03;101082.02;1812502;77;21275;-56
2021/09/10 05:52:35;;;;;;;99.87;30.70;;;;;;;22.79;58.04;101080.73;1806325;77;20958;-56
2021/09/10 05:55:01;;;;;;;192.62;66.87;;;;;;;22.77;58.04;101081.04;1826747;77;20981;-56
2021/09/10 05:57:27;;;;;;;151.30;51.58;;;;;;;22.76;58.05;101092.70;1810005;77;21022;-56
2021/09/10 05:59:53;;;;;;;118.22;37.98;;;;;;;22.75;58.05;101098.56;1809874;77;21025;-56
2021/09/10 06:02:21;;;;;;;171.80;54.03;;;;;;;22.75;58.06;101099.95;1808575;77;22106;-56
2021/09/10 06:04:47;;;;;;;325.52;102.32;;;;;;;22.73;58.07;101098.91;1814158;77;21523;-56
2021/09/10 06:07:14;;;;;;;328.73;109.15;;;;;;;22.72;58.09;101095.88;1803449;77;20916;-56
2021/09/10 06:09:40;;;;;;;195.82;64.60;;;;;;;22.72;58.09;101100.61;1810493;77;21061;-56
2021/09/10 06:12:06;;;;;;;186.73;57.08;;;;;;;22.70;58.09;101100.92;1803195;77;21003;-55
2021/09/10 06:14:33;;;;;;;217.70;68.65;;;;;;;22.68;58.10;101097.64;1805566;77;21130;-56
2021/09/10 06:17:02;;;;;;;205.95;62.65;;;;;;;22.68;58.11;101105.14;1822231;77;21477;-56
2021/09/10 06:19:31;;;;;;;128.18;38.15;;;;;;;22.66;58.09;101105.45;1799627;77;20998;-57
2021/09/10 06:21:57;;;;;;;54.15;16.57;;;;;;;22.66;58.08;101104.67;1800735;77;21058;-56
2021/09/10 06:24:24;;;;;;;61.30;17.73;;;;;;;22.69;58.12;101108.20;1813813;77;21514;-57
2021/09/10 06:26:50;;;;;;;82.40;25.82;;;;;;;22.73;58.19;101105.84;1795447;77;21118;-56
2021/09/10 06:29:16;;;;;;;140.60;42.75;;;;;;;22.76;58.28;101104.36;1810677;77;21093;-56
2021/09/10 06:31:42;;;;;;;96.90;33.35;;;;;;;22.79;58.38;101112.03;1805281;76;21455;-56
2021/09/10 06:34:08;;;;;;;124.62;39.42;;;;;;;22.83;58.41;101106.67;1821198;76;21036;-56
2021/09/10 06:36:34;;;;;;;108.27;33.70;;;;;;;22.86;58.35;101106.02;1821415;76;21091;-57
2021/09/10 06:39:00;;;;;;;51.35;15.98;;;;;;;22.88;58.26;101110.08;1815666;76;21313;-57
2021/09/10 06:41:26;;;;;;;22.50;8.38;;;;;;;22.91;58.20;101111.41;1829187;76;20973;-56
2021/09/10 07:00:42;;;;;;;3.30;2.27;;;;;;;22.83;57.61;101110.23;1427186;95;21153;-57
2021/09/10 07:03:08;;;;;;;4.10;2.40;;;;;;;22.80;57.61;101103.95;1492181;94;20991;-57
2021/09/10 07:05:34;;;;;;;3.47;2.40;;;;;;;22.78;57.59;101109.03;1559011;90;21624;-57
2021/09/10 07:08:00;;;;;;;3.08;2.00;;;;;;;22.75;57.59;101113.25;1566313;90;21134;-57
2021/09/10 07:10:26;;;;;;;2.62;2.20;;;;;;;22.75;57.59;101116.02;1564235;90;21672;-57
2021/09/10 07:12:52;;;;;;;4.65;2.33;;;;;;;22.74;57.60;101117.76;1568113;90;21059;-57
2021/09/10 07:15:18;;;;;;;2.90;2.25;;;;;;;22.72;57.57;101120.02;1569097;90;21058;-57
2021/09/10 07:17:45;;;;;;;4.80;2.15;;;;;;;22.71;57.59;101118.38;1564066;90;21141;-56
2021/09/10 07:20:12;;;;;;;2.33;2.08;;;;;;;22.71;57.60;101121.16;1564834;90;21218;-57
2021/09/10 07:22:38;;;;;;;2.62;2.10;;;;;;;22.68;57.58;101112.89;1562400;90;21171;-57
2021/09/10 07:25:06;;;;;;;2.40;1.92;;;;;;;22.67;57.59;101111.83;1567602;90;21579;-58
2021/09/10 07:27:32;;;;;;;4.17;2.37;;;;;;;22.67;57.62;101107.66;1569234;90;21130;-57
2021/09/10 07:29:59;;;;;;;3.62;2.50;;;;;;;22.66;57.60;101112.98;1595027;83;21154;-57
2021/09/10 07:32:25;;;;;;;2.35;2.00;;;;;;;22.66;57.60;101119.92;1737747;80;21213;-57
2021/09/10 07:34:51;;;;;;;3.12;2.25;;;;;;;22.64;57.60;101118.84;1772675;77;21460;-56
2021/09/10 07:37:24;;;;;;;3.35;2.33;;;;;;;22.64;57.60;101120.23;1805035;77;21003;-57
2021/09/10 07:39:45;;;;;;;2.80;1.90;;;;;;;22.63;57.58;101124.70;1814086;75;21044;-57
2021/09/10 07:42:11;;;;;;;4.47;2.17;;;;;;;22.63;57.56;101124.70;1810403;77;21077;-56
2021/09/10 07:44:37;;;;;;;3.92;2.10;;;;;;;22.62;57.57;101125.84;1809702;77;21988;-57
2021/09/10 07:47:04;;;;;;;2.47;1.92;;;;;;;22.63;57.58;101123.31;1814276;77;21597;-56
2021/09/10 07:49:30;;;;;;;2.85;1.90;;;;;;;22.61;57.60;101123.66;1818618;77;21077;-57
2021/09/10 07:51:56;;;;;;;2.40;2.00;;;;;;;22.61;57.58;101123.66;1809240;77;21007;-57
2021/09/10 07:54:22;;;;;;;3.08;1.90;;;;;;;22.62;57.59;101123.89;1800133;77;21657;-57
2021/09/10 07:56:48;;;;;;;2.15;1.60;;;;;;;22.61;57.58;101123.66;1801302;77;21143;-57
2021/09/10 07:59:14;;;;;;;3.17;2.15;;;;;;;22.61;57.58;101124.23;1819928;77;21103;-57
2021/09/10 08:01:41;;;;;;;2.22;1.80;;;;;;;22.60;57.57;101120.64;1817500;77;21346;-57
2021/09/10 08:04:07;;;;;;;2.50;2.02;;;;;;;22.60;57.56;101118.42;1807545;77;20989;-57
2021/09/10 08:06:34;;;;;;;2.62;2.02;;;;;;;22.61;57.54;101120.89;1811110;77;21497;-57
2021/09/10 08:09:00;;;;;;;2.35;1.72;;;;;;;22.60;57.51;101117.86;1809996;77;23185;-57
2021/09/10 08:11:27;;;;;;;2.20;1.77;;;;;;;22.59;57.51;101121.77;1810059;77;21070;-57
2021/09/10 08:13:53;;;;;;;2.77;1.85;;;;;;;22.60;57.50;101115.66;1809664;77;21510;-57
2021/09/10 08:16:19;;;;;;;3.67;2.20;;;;;;;22.60;57.49;101117.04;1817822;77;21103;-57
2021/09/10 08:18:45;;;;;;;3.00;2.00;;;;;;;22.59;57.49;101120.38;1810254;77;21719;-57
2021/09/10 08:21:11;;;;;;;2.50;1.92;;;;;;;22.59;57.48;101117.61;1810665;77;23348;-57
2021/09/10 08:23:37;;;;;;;3.72;1.90;;;;;;;22.58;57.46;101113.20;1815319;77;20946;-57
2021/09/10 08:26:03;;;;;;;3.20;2.15;;;;;;;22.59;57.44;101109.86;1814241;77;21085;-57
2021/09/10 08:28:33;;;;;;;3.02;2.10;;;;;;;22.59;57.42;101109.86;1803263;77;21073;-56
2021/09/10 08:30:59;;;;;;;2.83;2.05;;;;;;;22.59;57.41;101110.67;1807480;77;21058;-57
2021/09/10 08:33:25;;;;;;;2.70;1.80;;;;;;;22.59;57.39;101111.24;1833206;77;22030;-57
2021/09/10 08:35:51;;;;;;;3.27;2.10;;;;;;;22.59;57.35;101107.08;1815948;76;21046;-57
2021/09/10 08:38:17;;;;;;;2.22;2.00;;;;;;;22.59;57.36;101103.74;1819366;76;21018;-57
2021/09/10 08:40:45;;;;;;;2.40;1.80;;;;;;;22.58;57.34;101099.33;1829596;76;21555;-57
2021/09/10 08:43:12;;;;;;;2.12;1.92;;;;;;;22.58;57.32;101103.48;1826174;76;20997;-57
2021/09/10 08:45:38;;;;;;;3.15;1.87;;;;;;;22.59;57.30;101102.36;1830125;77;21290;-57
2021/09/10 08:48:05;;;;;;;4.10;1.92;;;;;;;22.59;57.29;101098.20;1822779;76;20979;-57
2021/09/10 08:50:32;;;;;;;2.65;1.80;;;;;;;22.59;57.27;101095.42;1823893;77;21533;-57
2021/09/10 08:52:58;;;;;;;2.98;2.02;;;;;;;22.59;57.25;101091.27;1821706;76;20953;-57
2021/09/10 08:55:24;;;;;;;2.37;1.80;;;;;;;22.60;57.24;101090.70;1828313;76;21008;-57
2021/09/10 08:57:54;;;;;;;2.70;1.60;;;;;;;22.60;57.23;101095.67;1827478;77;21265;-57
2021/09/10 09:00:33;;;;;;;2.20;1.70;;;;;;;22.61;57.21;101095.11;1824181;77;21403;-57
2021/09/10 09:03:07;;;;;;;2.83;1.60;;;;;;;22.61;57.22;101088.17;1826334;77;20981;-57
2021/09/10 09:05:33;;;;;;;3.20;2.00;;;;;;;22.61;57.20;101080.67;1822518;76;21136;-57
2021/09/10 09:08:19;;;;;;;2.55;1.90;;;;;;;22.61;57.18;101075.13;1823558;76;21133;-57
2021/09/10 09:11:02;;;;;;;2.60;1.80;;;;;;;22.62;57.17;101073.97;1833196;76;21815;-57
2021/09/10 09:13:35;;;;;;;2.90;2.15;;;;;;;22.61;57.13;101072.92;1817905;77;21029;-57
2021/09/10 09:16:24;;;;;;;2.50;1.55;;;;;;;22.60;57.13;101064.35;1830331;76;21028;-56
2021/09/10 09:19:01;;;;;;;3.60;1.95;;;;;;;22.61;57.13;101065.99;1828528;77;20984;-56
2021/09/10 09:21:35;;;;;;;3.02;2.02;;;;;;;22.60;57.10;101063.78;1824463;76;21149;-57
2021/09/10 09:24:17;;;;;;;2.05;1.85;;;;;;;22.61;57.11;101061.83;1823255;76;21069;-57
2021/09/10 09:26:49;;;;;;;2.83;2.00;;;;;;;22.60;57.10;101062.97;1822591;76;21047;-56
2021/09/10 09:29:20;;;;;;;2.22;1.70;;;;;;;22.60;57.07;101057.42;1827035;76;21057;-57
2021/09/10 09:31:56;;;;;;;2.80;2.00;;;;;;;22.60;57.07;101057.42;1824879;76;21141;-57
2021/09/10 09:34:45;;;;;;;2.10;1.65;;;;;;;22.60;57.06;101058.23;1813963;77;21105;-57
2021/09/10 09:37:16;;;;;;;2.50;1.77;;;;;;;22.61;57.04;101065.42;1824372;77;21488;-57
2021/09/10 09:40:00;;;;;;;5.40;1.80;;;;;;;22.61;57.00;101060.45;1826503;77;21417;-57
2021/09/10 09:42:38;;;;;;;3.70;1.60;;;;;;;22.61;57.02;101053.52;1827719;77;21056;-56
2021/09/10 09:45:10;;;;;;;2.30;1.57;;;;;;;22.62;57.00;101046.80;1830766;77;21050;-57
2021/09/10 09:47:37;;;;;;;2.58;1.82;;;;;;;22.62;56.98;101046.80;1828408;77;21025;-57
2021/09/10 09:50:09;;;;;;;3.22;1.70;;;;;;;22.63;56.97;101050.64;1827719;77;21462;-57
2021/09/10 09:52:35;;;;;;;2.83;1.87;;;;;;;22.63;56.96;101051.22;1823433;77;21453;-57
2021/09/10 09:55:06;;;;;;;3.33;1.85;;;;;;;22.65;56.96;101039.24;1827643;77;21388;-57
2021/09/10 09:57:33;;;;;;;2.65;1.70;;;;;;;22.65;56.95;101046.99;1821103;77;21091;-56
2021/09/10 10:00:04;;;;;;;2.10;1.72;;;;;;;22.66;56.94;101047.22;1818903;77;21061;-57
2021/09/10 10:02:30;;;;;;;2.47;2.00;;;;;;;22.67;56.93;101044.69;1828301;77;21128;-57
2021/09/10 10:04:58;;;;;;;2.65;1.80;;;;;;;22.68;56.90;101033.03;1827503;77;21152;-57
2021/09/10 10:07:24;;;;;;;2.60;1.62;;;;;;;22.68;56.88;101039.40;1819102;77;21065;-57
2021/09/10 10:09:51;;;;;;;2.33;1.70;;;;;;;22.71;56.87;101037.95;1831101;77;21077;-56
2021/09/10 10:12:21;;;;;;;2.27;1.77;;;;;;;22.72;56.86;101037.63;1831642;77;21102;-57
2021/09/10 10:14:47;;;;;;;2.67;1.85;;;;;;;22.73;56.84;101037.06;1833255;76;21297;-57
2021/09/10 10:17:34;;;;;;;2.80;2.00;;;;;;;22.74;56.82;101030.38;1799472;77;21380;-57
2021/09/10 10:20:00;;;;;;;2.12;1.50;;;;;;;22.75;56.81;101034.20;1834041;77;21441;-57
2021/09/10 10:22:36;;;;;;;2.80;1.90;;;;;;;22.76;56.79;101033.06;1836508;76;20894;-57
2021/09/10 10:25:05;;;;;;;2.55;1.92;;;;;;;22.76;56.76;101026.13;1822292;77;21065;-57
2021/09/10 10:27:40;;;;;;;2.67;1.82;;;;;;;22.78;56.75;101034.13;1828378;77;21101;-57
2021/09/10 10:30:27;;;;;;;2.62;1.65;;;;;;;22.79;56.73;101026.63;1827897;76;20986;-57
2021/09/10 10:32:53;;;;;;;2.60;1.70;;;;;;;22.80;56.72;101023.51;1824505;76;21036;-57
2021/09/10 10:35:23;;;;;;;2.22;1.60;;;;;;;22.81;56.66;101024.33;1810023;77;21058;-57
2021/09/10 10:38:06;;;;;;;1.90;1.43;;;;;;;22.82;56.68;101021.81;1785703;78;21038;-57
2021/09/10 10:40:49;;;;;;;2.47;1.80;;;;;;;22.84;56.64;101018.12;1783519;78;21112;-57
2021/09/10 10:43:24;;;;;;;2.60;1.60;;;;;;;22.84;56.61;101016.16;1790829;78;21050;-56
2021/09/10 10:46:07;;;;;;;1.98;1.50;;;;;;;22.86;56.57;101014.45;1787509;78;20988;-57
2021/09/10 10:48:44;;;;;;;2.00;1.70;;;;;;;22.87;56.55;101009.16;1787415;78;21015;-57
2021/09/10 10:51:21;;;;;;;2.22;1.45;;;;;;;22.89;56.52;101006.29;1785360;78;21018;-56
2021/09/10 10:53:58;;;;;;;2.55;1.62;;;;;;;22.90;56.49;100995.45;1788325;78;22062;-57
2021/09/10 10:56:34;;;;;;;2.10;1.60;;;;;;;22.92;56.49;101000.08;1784473;78;21499;-57
2021/09/10 10:59:19;;;;;;;3.17;2.08;;;;;;;22.95;56.43;100999.44;1788284;78;21077;-58
2021/09/10 11:02:21;;;;;;;2.58;1.75;;;;;;;22.97;56.39;100996.31;1786116;79;21007;-58
2021/09/10 11:05:11;;;;;;;3.40;1.80;;;;;;;22.99;56.36;100996.82;1782462;78;21086;-58
2021/09/10 11:07:37;;;;;;;2.30;1.67;;;;;;;22.99;56.31;100992.09;1787312;78;21077;-57
2021/09/10 11:10:14;;;;;;;2.25;1.60;;;;;;;23.02;56.28;100993.37;1786803;78;21458;-57
2021/09/10 11:12:41;;;;;;;1.95;1.40;;;;;;;23.04;56.25;100993.88;1788001;78;21484;-55
2021/09/10 11:15:33;;;;;;;2.08;1.72;;;;;;;23.05;56.20;100989.37;1783755;78;21026;-56
2021/09/10 11:18:05;;;;;;;1.80;1.40;;;;;;;23.06;56.18;100988.23;1786247;78;21049;-56
2021/09/10 11:20:46;;;;;;;1.75;1.30;;;;;;;23.09;56.11;100992.29;1785784;78;21043;-56
2021/09/10 11:23:28;;;;;;;3.33;1.32;;;;;;;23.10;56.09;101002.25;1786996;78;21703;-56
2021/09/10 11:25:56;;;;;;;3.12;1.60;;;;;;;23.12;56.07;100998.59;1787019;78;21030;-57
2021/09/10 11:28:25;;;;;;;2.50;1.80;;;;;;;23.15;56.01;100992.38;1788001;78;20981;-56
2021/09/10 11:30:52;;;;;;;2.40;1.47;;;;;;;23.15;55.99;100988.21;1787078;80;21062;-56
2021/09/10 11:33:18;;;;;;;2.42;1.37;;;;;;;23.16;55.95;100983.73;1789209;78;21052;-57
2021/09/10 11:35:46;;;;;;;1.77;1.40;;;;;;;23.19;55.91;100983.63;1787527;79;21704;-58
2021/09/10 11:38:17;;;;;;;1.92;1.60;;;;;;;23.21;55.88;100973.02;1791534;79;21536;-56
2021/09/10 11:40:50;;;;;;;2.12;1.37;;;;;;;23.22;55.82;100974.62;1789487;79;21086;-57
2021/09/10 11:43:21;;;;;;;2.02;1.50;;;;;;;23.24;55.80;100976.52;1796517;79;21097;-57
2021/09/10 11:45:56;;;;;;;1.80;1.30;;;;;;;23.26;55.75;100969.22;1782859;79;21151;-57
2021/09/10 11:48:31;;;;;;;1.82;1.40;;;;;;;23.26;55.71;100962.28;1790645;78;21623;-56